Time;durP1;ratioP1;P1;durP2;ratioP2;P2;SDS_P1;SDS_P2;PMS_P1;PMS_P2;Temp;Humidity;BMP_temperature;BMP_pressure;BME280_temperature;BME280_humidity;BME280_pressure;Samples;Min_cycle;Max_cycle;Signal;HPM_P1;HPM_P2
2021/01/16 00:01:21;;;;;;;7.05;3.90;;;-0.90;99.90;;;;;;5027535;28;20037;-48
2021/01/16 00:03:46;;;;;;;6.72;4.00;;;-0.90;99.90;;;;;;5027917;28;20025;-47
2021/01/16 00:06:14;;;;;;;6.75;3.88;;;-0.90;99.90;;;;;;5027100;28;20483;-47
2021/01/16 00:08:42;;;;;;;9.02;3.58;;;-0.80;99.90;;;;;;5028260;28;20117;-50
2021/01/16 00:11:08;;;;;;;7.22;3.60;;;-0.90;99.90;;;;;;5028092;28;20260;-46
2021/01/16 00:13:34;;;;;;;6.80;4.28;;;-0.90;99.90;;;;;;5028082;28;20030;-47
2021/01/16 00:16:00;;;;;;;9.38;4.35;;;-0.90;99.90;;;;;;5027911;28;20399;-47
2021/01/16 00:18:26;;;;;;;6.53;3.53;;;-0.80;99.90;;;;;;5026688;28;20041;-46
2021/01/16 00:20:54;;;;;;;9.98;4.80;;;-0.80;99.90;;;;;;5028244;28;20029;-47
2021/01/16 00:23:23;;;;;;;5.57;3.60;;;-0.80;99.90;;;;;;5027427;28;20068;-47
2021/01/16 00:25:48;;;;;;;8.13;3.70;;;-0.80;99.90;;;;;;5027318;28;20167;-49
2021/01/16 00:28:22;;;;;;;5.55;3.70;;;-0.90;99.90;;;;;;5027063;28;20108;-47
2021/01/16 00:30:48;;;;;;;8.95;3.80;;;-0.90;99.90;;;;;;5026801;28;20052;-48
2021/01/16 00:33:22;;;;;;;6.47;3.58;;;-0.90;99.90;;;;;;5028270;28;20446;-47
2021/01/16 00:35:48;;;;;;;5.47;4.22;;;-0.90;99.90;;;;;;5027578;28;20025;-47
2021/01/16 00:38:14;;;;;;;6.55;3.60;;;-0.90;99.90;;;;;;5027919;28;20029;-46
2021/01/16 00:40:40;;;;;;;7.80;3.80;;;-0.90;99.90;;;;;;5027779;28;20036;-47
2021/01/16 00:43:09;;;;;;;4.75;3.58;;;-0.90;99.90;;;;;;5027883;28;20026;-50
2021/01/16 00:45:36;;;;;;;6.22;3.83;;;-1.00;99.90;;;;;;5027206;28;20017;-49
2021/01/16 00:48:12;;;;;;;5.55;3.45;;;-0.90;99.90;;;;;;5031579;28;20056;-47
2021/01/16 00:50:38;;;;;;;5.28;2.88;;;-1.00;99.90;;;;;;5031705;28;20030;-47
2021/01/16 00:53:04;;;;;;;5.07;3.47;;;-1.00;99.90;;;;;;5031498;28;20155;-48
2021/01/16 00:55:29;;;;;;;6.13;3.78;;;-0.90;99.90;;;;;;5030523;28;20115;-47
2021/01/16 00:57:55;;;;;;;5.47;3.53;;;-0.90;99.90;;;;;;5031282;28;20034;-46
2021/01/16 01:00:23;;;;;;;5.18;3.38;;;-0.90;99.90;;;;;;5029936;28;20051;-47
2021/01/16 01:02:49;;;;;;;5.68;3.42;;;-0.90;99.90;;;;;;5031405;28;20487;-47
2021/01/16 01:05:16;;;;;;;3.97;3.10;;;-0.90;99.90;;;;;;5030635;28;20029;-47
2021/01/16 01:07:44;;;;;;;6.38;3.40;;;-0.90;99.90;;;;;;5031193;28;20106;-47
2021/01/16 01:10:10;;;;;;;6.60;3.92;;;-0.90;99.90;;;;;;5031102;28;20491;-49
2021/01/16 01:12:39;;;;;;;6.72;3.30;;;-0.90;99.90;;;;;;5030921;28;20127;-47
2021/01/16 01:15:06;;;;;;;7.13;3.42;;;-0.90;99.90;;;;;;5030753;28;20454;-46
2021/01/16 01:17:32;;;;;;;7.20;3.58;;;-0.90;99.90;;;;;;5031074;28;20187;-48
2021/01/16 01:19:57;;;;;;;5.88;3.33;;;-0.90;99.90;;;;;;5031201;28;20108;-47
2021/01/16 01:22:24;;;;;;;6.93;3.92;;;-0.90;99.90;;;;;;5030313;28;20036;-47
2021/01/16 01:24:49;;;;;;;5.90;3.20;;;-0.90;99.90;;;;;;5030386;28;20048;-46
2021/01/16 01:27:15;;;;;;;6.40;3.53;;;-0.90;99.90;;;;;;5030816;28;20873;-46
2021/01/16 01:29:40;;;;;;;7.45;3.97;;;-0.90;99.90;;;;;;5029441;28;20034;-47
2021/01/16 01:32:06;;;;;;;5.80;3.53;;;-0.90;99.90;;;;;;5030878;28;20026;-47
2021/01/16 01:34:31;;;;;;;8.82;3.72;;;-1.00;99.90;;;;;;5030221;28;20112;-46
2021/01/16 01:36:57;;;;;;;8.07;3.83;;;-1.00;99.90;;;;;;5030606;28;20025;-46
2021/01/16 01:39:22;;;;;;;6.53;3.90;;;-1.00;99.90;;;;;;5029290;28;20112;-47
2021/01/16 01:41:48;;;;;;;6.68;3.90;;;-1.00;99.90;;;;;;5030108;28;20037;-47
2021/01/16 01:44:13;;;;;;;6.68;3.63;;;-1.00;99.90;;;;;;5029855;28;20059;-48
2021/01/16 01:46:39;;;;;;;6.13;4.22;;;-1.00;99.90;;;;;;5030020;28;20017;-50
2021/01/16 01:49:05;;;;;;;6.82;4.47;;;-1.00;99.90;;;;;;5030684;28;20431;-47
2021/01/16 01:51:32;;;;;;;7.47;4.47;;;-1.00;99.90;;;;;;5030723;28;20029;-48
2021/01/16 01:54:01;;;;;;;7.90;4.43;;;-1.00;99.90;;;;;;5030964;28;20101;-47
2021/01/16 01:56:28;;;;;;;9.15;5.00;;;-1.00;99.90;;;;;;5028780;28;20372;-47
2021/01/16 01:58:55;;;;;;;8.32;4.68;;;-1.00;99.90;;;;;;5029225;28;20036;-45
2021/01/16 02:01:22;;;;;;;7.93;4.68;;;-1.00;99.90;;;;;;5030229;28;20041;-46
2021/01/16 02:03:49;;;;;;;9.18;5.13;;;-1.00;99.90;;;;;;5030065;28;20029;-47
2021/01/16 02:06:15;;;;;;;8.60;5.10;;;-1.00;99.90;;;;;;5029531;28;20018;-50
2021/01/16 02:08:41;;;;;;;7.35;4.53;;;-0.90;99.90;;;;;;5030067;28;20063;-49
2021/01/16 02:11:07;;;;;;;8.85;4.65;;;-0.90;99.90;;;;;;5029666;28;20461;-46
2021/01/16 02:13:33;;;;;;;8.85;4.65;;;-0.90;99.90;;;;;;5029893;28;20037;-47
2021/01/16 02:16:16;;;;;;;7.85;5.00;;;-0.90;99.90;;;;;;5029356;28;20033;-47
2021/01/16 02:18:46;;;;;;;8.02;5.10;;;-1.00;99.90;;;;;;5030182;28;20040;-46
2021/01/16 02:21:22;;;;;;;10.27;5.55;;;-0.90;99.90;;;;;;5030441;28;20344;-46
2021/01/16 02:23:56;;;;;;;9.40;4.72;;;-1.00;99.90;;;;;;5029792;28;20398;-49
2021/01/16 02:26:54;;;;;;;7.72;5.18;;;-1.00;99.90;;;;;;5027768;28;20479;-46
2021/01/16 02:29:20;;;;;;;6.28;4.38;;;-1.00;99.90;;;;;;5029813;28;20067;-46
2021/01/16 02:31:55;;;;;;;10.30;5.65;;;-1.00;99.90;;;;;;5029773;28;20068;-46
2021/01/16 02:34:25;;;;;;;11.18;4.93;;;-1.00;99.90;;;;;;5029673;28;20026;-47
2021/01/16 02:37:12;;;;;;;8.30;5.03;;;-1.00;99.90;;;;;;5029054;28;20036;-46
2021/01/16 02:39:56;;;;;;;7.65;4.70;;;-1.00;99.90;;;;;;5029330;28;20057;-47
2021/01/16 02:42:47;;;;;;;9.55;5.70;;;-1.10;99.90;;;;;;5029238;28;20038;-48
2021/01/16 02:45:16;;;;;;;9.07;4.68;;;-1.10;99.90;;;;;;5027018;28;20376;-47
2021/01/16 02:47:58;;;;;;;8.77;4.97;;;-1.10;99.90;;;;;;5029292;28;20029;-46
2021/01/16 02:50:28;;;;;;;8.73;5.32;;;-1.10;99.90;;;;;;5029382;28;20029;-49
2021/01/16 02:52:57;;;;;;;7.63;5.07;;;-1.10;99.90;;;;;;5029239;28;20495;-48
2021/01/16 02:55:23;;;;;;;10.15;5.28;;;-1.10;99.90;;;;;;5028727;28;20025;-46
2021/01/16 02:57:48;;;;;;;9.45;5.28;;;-1.20;99.90;;;;;;5028872;28;20720;-46
2021/01/16 03:00:18;;;;;;;10.25;5.05;;;-1.20;99.90;;;;;;5029467;28;20032;-46
2021/01/16 03:02:43;;;;;;;8.10;5.38;;;-1.20;99.90;;;;;;5029217;28;20029;-50
2021/01/16 03:05:09;;;;;;;8.07;5.10;;;-1.20;99.90;;;;;;5028321;28;20041;-46
2021/01/16 03:07:36;;;;;;;10.82;6.25;;;-1.30;99.90;;;;;;5029225;28;20029;-46
2021/01/16 03:10:05;;;;;;;8.77;4.82;;;-1.30;99.90;;;;;;5028783;28;20025;-47
2021/01/16 03:12:31;;;;;;;9.02;6.15;;;-1.30;99.90;;;;;;5028789;28;20022;-48
2021/01/16 03:15:00;;;;;;;10.82;6.55;;;-1.30;99.90;;;;;;5028258;28;20040;-47
2021/01/16 03:17:47;;;;;;;12.52;6.05;;;-1.30;99.90;;;;;;5028713;28;20390;-46
2021/01/16 03:20:19;;;;;;;8.63;5.53;;;-1.30;99.90;;;;;;5028872;28;20116;-46
2021/01/16 03:22:45;;;;;;;11.02;6.97;;;-1.40;99.90;;;;;;5028782;28;20053;-46
2021/01/16 03:25:11;;;;;;;10.82;6.88;;;-1.40;99.90;;;;;;5028492;28;20025;-46
2021/01/16 03:27:37;;;;;;;8.98;5.85;;;-1.40;99.90;;;;;;5028407;28;20393;-46
2021/01/16 03:30:03;;;;;;;11.05;7.13;;;-1.40;99.90;;;;;;5028710;28;20029;-47
2021/01/16 03:32:29;;;;;;;12.13;7.05;;;-1.40;99.90;;;;;;5028680;28;20383;-47
2021/01/16 03:34:54;;;;;;;10.25;6.93;;;-1.50;99.90;;;;;;5026823;28;20029;-46
2021/01/16 03:37:21;;;;;;;11.55;6.65;;;-1.50;99.90;;;;;;5028840;28;20097;-47
2021/01/16 03:39:46;;;;;;;11.52;7.43;;;-1.50;99.90;;;;;;5029046;28;20107;-46
2021/01/16 03:42:12;;;;;;;12.93;8.07;;;-1.40;99.90;;;;;;5028648;28;20470;-46
2021/01/16 03:44:38;;;;;;;11.27;7.35;;;-1.40;99.90;;;;;;5027546;28;20564;-46
2021/01/16 03:47:04;;;;;;;12.55;7.32;;;-1.40;99.90;;;;;;5028166;28;20491;-46
2021/01/16 03:49:30;;;;;;;14.88;7.78;;;-1.40;99.90;;;;;;5028414;28;20083;-47
2021/01/16 03:51:56;;;;;;;21.02;7.72;;;-1.40;99.90;;;;;;5028387;28;20025;-47
2021/01/16 03:54:22;;;;;;;11.30;7.47;;;-1.40;99.90;;;;;;5028011;28;20029;-46
2021/01/16 03:56:47;;;;;;;14.15;7.53;;;-1.40;99.90;;;;;;5028118;28;20063;-47
2021/01/16 03:59:13;;;;;;;13.10;8.20;;;-1.40;99.90;;;;;;5026975;28;20033;-46
2021/01/16 04:01:39;;;;;;;16.08;8.73;;;-1.40;99.90;;;;;;5028309;28;20029;-46
2021/01/16 04:04:04;;;;;;;13.52;8.00;;;-1.40;99.90;;;;;;5028298;28;20061;-50
2021/01/16 04:06:30;;;;;;;13.45;8.25;;;-1.40;99.90;;;;;;5027806;28;20487;-46
2021/01/16 04:08:55;;;;;;;14.80;8.30;;;-1.40;99.90;;;;;;5028536;28;20032;-46
2021/01/16 04:11:21;;;;;;;14.57;9.05;;;-1.40;99.90;;;;;;5028454;28;20029;-46
2021/01/16 04:13:47;;;;;;;15.30;7.88;;;-1.40;99.90;;;;;;5028391;28;20072;-46
2021/01/16 04:16:12;;;;;;;15.75;7.70;;;-1.40;99.90;;;;;;5027938;28;20083;-49
2021/01/16 04:18:38;;;;;;;14.20;8.05;;;-1.40;99.90;;;;;;5028163;28;20091;-46
2021/01/16 04:21:04;;;;;;;13.85;8.38;;;-1.50;99.90;;;;;;5029079;28;20037;-46
2021/01/16 04:23:30;;;;;;;14.82;7.43;;;-1.50;99.90;;;;;;5032146;28;20072;-48
2021/01/16 04:25:56;;;;;;;12.73;8.27;;;-1.50;99.90;;;;;;5030508;28;20452;-46
2021/01/16 04:28:22;;;;;;;14.52;8.27;;;-1.60;99.90;;;;;;5030592;28;20021;-46
2021/01/16 04:30:47;;;;;;;15.23;8.85;;;-1.60;99.90;;;;;;5032158;28;20017;-46
2021/01/16 04:33:13;;;;;;;15.55;8.85;;;-1.60;99.90;;;;;;5032067;28;20146;-47
2021/01/16 04:35:39;;;;;;;17.45;8.93;;;-1.60;99.90;;;;;;5031335;28;20567;-47
2021/01/16 04:38:04;;;;;;;15.15;8.75;;;-1.60;99.90;;;;;;5032084;28;20021;-46
2021/01/16 04:40:30;;;;;;;14.77;7.78;;;-1.60;99.90;;;;;;5031864;28;20029;-46
2021/01/16 04:42:56;;;;;;;13.05;7.60;;;-1.70;99.90;;;;;;5031297;28;20090;-46
2021/01/16 04:45:22;;;;;;;12.00;8.02;;;-1.70;99.90;;;;;;5030979;28;20061;-46
2021/01/16 04:47:49;;;;;;;15.52;8.30;;;-1.70;99.90;;;;;;5031664;28;20014;-46
2021/01/16 04:50:19;;;;;;;15.23;7.95;;;-1.80;99.90;;;;;;5031639;28;20390;-46
2021/01/16 04:52:45;;;;;;;14.23;7.97;;;-1.80;99.90;;;;;;5031682;28;20065;-45
2021/01/16 04:55:14;;;;;;;14.60;9.27;;;-1.80;99.90;;;;;;5030467;28;20040;-46
2021/01/16 04:57:41;;;;;;;15.77;8.70;;;-1.90;99.90;;;;;;5011358;28;20065;-46
2021/01/16 05:00:12;;;;;;;16.23;8.60;;;-1.90;99.90;;;;;;5011674;28;20211;-46
2021/01/16 05:02:42;;;;;;;14.27;8.82;;;-1.90;99.90;;;;;;5011771;28;20120;-46
2021/01/16 05:05:09;;;;;;;15.82;9.07;;;-2.00;99.90;;;;;;5011128;28;20449;-46
2021/01/16 05:07:35;;;;;;;16.33;8.82;;;-1.90;99.90;;;;;;5011548;28;20522;-46
2021/01/16 05:10:03;;;;;;;15.13;8.82;;;-1.90;99.90;;;;;;5011517;28;20053;-46
2021/01/16 05:12:32;;;;;;;15.75;8.85;;;-1.90;99.90;;;;;;5011252;28;20105;-47
2021/01/16 05:15:03;;;;;;;16.40;7.93;;;-1.80;99.90;;;;;;5009588;28;20038;-50
2021/01/16 05:17:31;;;;;;;14.80;8.40;;;-1.80;99.90;;;;;;5011774;28;20101;-46
2021/01/16 05:19:57;;;;;;;15.35;7.50;;;-1.80;99.90;;;;;;5011562;28;20260;-47
2021/01/16 05:22:23;;;;;;;14.00;8.30;;;-1.80;99.90;;;;;;5011131;28;20026;-46
2021/01/16 05:24:49;;;;;;;13.02;7.32;;;-1.80;99.90;;;;;;5018604;28;20033;-47
2021/01/16 05:27:20;;;;;;;15.77;9.77;;;-1.80;99.90;;;;;;5030849;28;20252;-46
2021/01/16 05:29:46;;;;;;;13.30;8.45;;;-1.80;99.90;;;;;;5030733;28;20021;-47
2021/01/16 05:32:13;;;;;;;12.98;7.30;;;-1.80;99.90;;;;;;5030551;28;20075;-48
2021/01/16 05:34:39;;;;;;;14.80;8.73;;;-1.70;99.90;;;;;;5030683;28;20056;-44
2021/01/16 05:37:05;;;;;;;13.15;7.78;;;-1.70;99.90;;;;;;5029243;28;20097;-46
2021/01/16 05:39:33;;;;;;;13.73;8.20;;;-1.70;99.90;;;;;;5030408;28;20036;-47
2021/01/16 05:42:03;;;;;;;14.55;8.10;;;-1.60;99.90;;;;;;5030112;28;20033;-46
2021/01/16 05:44:29;;;;;;;;;;;-1.60;99.90;;;;;;5029170;28;20097;-48
2021/01/16 05:46:56;;;;;;;12.20;7.43;;;-1.60;99.90;;;;;;5030253;28;19911;-46
2021/01/16 05:49:22;;;;;;;13.93;7.97;;;-1.60;99.90;;;;;;5029009;28;20382;-46
2021/01/16 05:51:49;;;;;;;15.55;7.93;;;-1.50;99.90;;;;;;5029939;28;20037;-47
2021/01/16 05:54:17;;;;;;;11.73;6.90;;;-1.50;99.90;;;;;;5027581;28;20390;-46
2021/01/16 05:56:43;;;;;;;14.13;7.30;;;-1.50;99.90;;;;;;5029289;28;20029;-46
2021/01/16 05:59:11;;;;;;;12.40;7.40;;;-1.50;99.90;;;;;;5030093;28;20026;-46
2021/01/16 06:01:38;;;;;;;13.20;7.85;;;-1.50;99.90;;;;;;5029854;28;20364;-46
2021/01/16 06:04:05;;;;;;;13.43;8.40;;;-1.40;99.90;;;;;;5030134;28;20037;-48
2021/01/16 06:06:36;;;;;;;10.18;6.55;;;-1.40;99.90;;;;;;5029516;28;20026;-48
2021/01/16 06:09:03;;;;;;;12.75;7.63;;;-1.40;99.90;;;;;;5029653;28;20025;-48
2021/01/16 06:11:38;;;;;;;15.65;7.15;;;-1.40;99.90;;;;;;5027382;28;20112;-47
2021/01/16 06:14:09;;;;;;;12.93;7.55;;;-1.40;99.90;;;;;;5027870;28;20184;-47
2021/01/16 06:17:15;;;;;;;13.85;7.57;;;-1.40;99.90;;;;;;5027681;28;20033;-47
2021/01/16 06:19:47;;;;;;;13.07;6.95;;;-1.40;99.90;;;;;;5011021;28;20081;-46
2021/01/16 06:22:14;;;;;;;10.50;7.15;;;-1.40;99.90;;;;;;5000714;28;20128;-48
2021/01/16 06:24:50;;;;;;;11.38;7.30;;;-1.30;99.90;;;;;;5026815;28;20224;-47
2021/01/16 06:27:23;;;;;;;13.77;7.85;;;-1.30;99.90;;;;;;5029198;28;20438;-49
2021/01/16 06:30:08;;;;;;;14.13;7.88;;;-1.30;99.90;;;;;;5029636;28;20025;-47
2021/01/16 06:32:46;;;;;;;11.10;7.50;;;-1.30;99.90;;;;;;5028201;28;20037;-47
2021/01/16 06:35:12;;;;;;;12.88;8.80;;;-1.30;99.90;;;;;;5027266;28;20029;-46
2021/01/16 06:37:51;;;;;;;17.55;8.43;;;-1.30;99.90;;;;;;5029498;28;20103;-48
2021/01/16 06:40:30;;;;;;;18.00;8.25;;;-1.30;99.90;;;;;;5029661;28;20025;-47
2021/01/16 06:42:57;;;;;;;14.93;8.68;;;-1.30;99.90;;;;;;5029357;28;20518;-46
2021/01/16 06:45:26;;;;;;;14.82;8.27;;;-1.30;99.90;;;;;;5027813;28;20052;-47
2021/01/16 06:47:59;;;;;;;15.93;8.30;;;-1.30;99.90;;;;;;5028887;28;20083;-47
2021/01/16 06:50:26;;;;;;;16.30;8.52;;;-1.30;99.90;;;;;;5027522;28;20013;-47
2021/01/16 06:52:52;;;;;;;12.43;7.97;;;-1.20;99.90;;;;;;5028406;28;20118;-45
2021/01/16 06:55:19;;;;;;;11.98;7.70;;;-1.30;99.90;;;;;;5028581;28;20064;-46
2021/01/16 06:57:45;;;;;;;12.13;7.63;;;-1.30;99.90;;;;;;5028587;28;20025;-43
2021/01/16 07:00:11;;;;;;;13.80;8.15;;;-1.20;99.90;;;;;;5024563;28;20033;-43
2021/01/16 07:02:39;;;;;;;14.02;7.78;;;-1.30;99.90;;;;;;5024610;28;20087;-43
2021/01/16 07:05:07;;;;;;;14.95;7.97;;;-1.20;99.90;;;;;;5025883;28;20032;-43
2021/01/16 07:07:40;;;;;;;13.80;7.88;;;-1.30;99.90;;;;;;5028931;28;20080;-43
2021/01/16 07:10:17;;;;;;;10.43;6.43;;;-1.30;99.90;;;;;;5021726;28;20767;-44
2021/01/16 07:12:46;;;;;;;12.60;7.97;;;-1.30;99.90;;;;;;5021058;28;20056;-44
2021/01/16 07:15:12;;;;;;;15.88;8.65;;;-1.20;99.90;;;;;;5027630;28;20063;-43
2021/01/16 07:17:38;;;;;;;15.80;8.43;;;-1.20;99.90;;;;;;5028628;28;20026;-44
2021/01/16 07:20:05;;;;;;;14.82;7.53;;;-1.30;99.90;;;;;;5028772;28;20032;-44
2021/01/16 07:22:33;;;;;;;12.60;7.50;;;-1.30;99.90;;;;;;5027321;28;20017;-45
2021/01/16 07:25:02;;;;;;;12.45;7.85;;;-1.30;99.90;;;;;;5027233;28;20053;-43
2021/01/16 07:27:28;;;;;;;14.43;7.13;;;-1.20;99.90;;;;;;5028480;28;20026;-44
2021/01/16 07:29:58;;;;;;;14.38;7.80;;;-1.20;99.90;;;;;;5028730;28;20034;-44
2021/01/16 07:32:45;;;;;;;17.77;7.72;;;-1.20;99.90;;;;;;5028633;28;20025;-44
2021/01/16 07:35:15;;;;;;;12.80;7.00;;;-1.20;99.90;;;;;;5008385;28;20028;-43
2021/01/16 07:37:45;;;;;;;13.15;7.88;;;-1.20;99.90;;;;;;5008940;28;20030;-43
2021/01/16 07:40:20;;;;;;;14.57;8.03;;;-1.30;99.90;;;;;;5008761;28;20112;-44
2021/01/16 07:42:51;;;;;;;11.25;7.32;;;-1.30;99.90;;;;;;5008686;28;20261;-43
2021/01/16 07:45:27;;;;;;;14.43;7.85;;;-1.30;99.90;;;;;;5008358;28;20026;-46
2021/01/16 07:48:01;;;;;;;14.70;7.70;;;-1.20;99.90;;;;;;5008740;28;20049;-44
2021/01/16 07:50:29;;;;;;;14.60;8.20;;;-1.20;99.90;;;;;;5008669;28;20341;-44
2021/01/16 07:53:01;;;;;;;15.43;7.72;;;-1.20;99.90;;;;;;5008546;28;20559;-43
2021/01/16 07:55:36;;;;;;;11.85;7.90;;;-1.20;99.90;;;;;;5023954;28;20052;-44
2021/01/16 07:58:28;;;;;;;12.18;7.57;;;-1.20;99.90;;;;;;5033972;28;20037;-43
2021/01/16 08:01:04;;;;;;;14.25;7.80;;;-1.20;99.90;;;;;;5034195;28;20545;-56
2021/01/16 08:03:45;;;;;;;11.63;7.35;;;-1.20;99.90;;;;;;5033452;28;20398;-43
2021/01/16 08:06:16;;;;;;;;;;;-1.10;99.90;;;;;;5031193;28;20057;-43
2021/01/16 08:09:02;;;;;;;13.35;7.82;;;-1.10;99.90;;;;;;5033611;28;19920;-44
2021/01/16 08:11:30;;;;;;;15.23;9.40;;;-1.10;99.90;;;;;;5030044;28;20025;-44
2021/01/16 08:14:06;;;;;;;14.20;8.13;;;-1.20;99.90;;;;;;5029330;28;20049;-44
2021/01/16 08:16:33;;;;;;;13.20;7.95;;;-1.10;99.90;;;;;;5031229;28;20028;-44
2021/01/16 08:19:24;;;;;;;14.48;7.93;;;-1.10;99.90;;;;;;5031530;28;20629;-44
2021/01/16 08:21:57;;;;;;;15.55;9.20;;;-1.10;99.90;;;;;;5031406;28;20032;-43
2021/01/16 08:24:29;;;;;;;16.95;8.45;;;-1.10;99.90;;;;;;5030948;28;20041;-44
2021/01/16 08:27:00;;;;;;;12.57;7.75;;;-1.00;99.90;;;;;;5032213;28;20025;-44
2021/01/16 08:29:32;;;;;;;16.15;8.77;;;-1.00;99.90;;;;;;5032251;28;20029;-44
2021/01/16 08:32:12;;;;;;;12.88;8.00;;;-1.00;99.90;;;;;;5033104;28;20441;-44
2021/01/16 08:35:01;;;;;;;13.25;8.18;;;-0.90;99.90;;;;;;5032405;28;20022;-44
2021/01/16 08:37:34;;;;;;;15.00;8.63;;;-0.90;99.90;;;;;;5033171;28;20364;-47
2021/01/16 08:40:03;;;;;;;14.93;8.48;;;-0.90;99.90;;;;;;5032873;28;20292;-45
2021/01/16 08:42:29;;;;;;;14.90;8.63;;;-0.90;99.90;;;;;;5012814;28;20034;-45
2021/01/16 08:44:56;;;;;;;13.48;8.60;;;-0.90;99.90;;;;;;5012503;28;20238;-47
2021/01/16 08:47:22;;;;;;;17.75;9.60;;;-0.90;99.90;;;;;;5013062;28;20022;-45
2021/01/16 08:49:48;;;;;;;12.85;7.95;;;-0.80;99.90;;;;;;5013544;28;20052;-44
2021/01/16 08:52:32;;;;;;;14.13;7.78;;;-0.80;99.90;;;;;;5028448;28;20109;-44
2021/01/16 08:55:00;;;;;;;14.13;8.48;;;-0.80;99.90;;;;;;5030865;28;20022;-44
2021/01/16 08:57:30;;;;;;;14.98;8.52;;;-0.80;99.90;;;;;;5032619;28;20386;-47
2021/01/16 08:59:56;;;;;;;11.70;6.93;;;-0.80;99.90;;;;;;5032318;28;20117;-44
2021/01/16 09:02:21;;;;;;;20.00;8.98;;;-0.80;99.90;;;;;;5031874;28;20101;-44
2021/01/16 09:04:47;;;;;;;12.02;8.15;;;-0.70;99.90;;;;;;5029679;28;20071;-46
2021/01/16 09:07:23;;;;;;;16.33;8.35;;;-0.70;99.90;;;;;;5029105;28;20105;-44
2021/01/16 09:09:55;;;;;;;16.40;9.43;;;-0.70;99.90;;;;;;5029608;28;20429;-44
2021/01/16 09:12:34;;;;;;;16.23;9.18;;;-0.70;99.90;;;;;;5030446;28;20022;-45
2021/01/16 09:15:21;;;;;;;14.65;9.40;;;-0.60;99.90;;;;;;5030752;28;20465;-44
2021/01/16 09:18:02;;;;;;;13.68;7.93;;;-0.60;99.90;;;;;;5030875;28;20033;-44
2021/01/16 09:20:28;;;;;;;;;;;-0.60;99.90;;;;;;5031336;28;20344;-44
2021/01/16 09:22:53;;;;;;;12.80;8.23;;;-0.60;99.90;;;;;;5030840;28;19920;-44
2021/01/16 09:25:24;;;;;;;13.20;7.72;;;-0.60;99.90;;;;;;5030136;28;20022;-44
2021/01/16 09:27:50;;;;;;;14.27;8.32;;;-0.60;99.90;;;;;;5030498;28;20021;-45
2021/01/16 09:30:30;;;;;;;15.55;9.13;;;-0.70;99.90;;;;;;5030381;28;20160;-44
2021/01/16 09:32:55;;;;;;;16.15;8.15;;;-0.60;99.90;;;;;;5030614;28;20022;-44
2021/01/16 09:35:36;;;;;;;15.35;8.70;;;-0.60;99.90;;;;;;5030095;28;20036;-44
2021/01/16 09:38:04;;;;;;;16.67;9.77;;;-0.60;99.90;;;;;;5032055;28;20153;-44
2021/01/16 09:40:36;;;;;;;13.75;8.40;;;-0.60;99.90;;;;;;5025351;28;20124;-44
2021/01/16 09:43:16;;;;;;;15.95;9.65;;;-0.50;99.90;;;;;;5027855;28;20025;-44
2021/01/16 09:45:50;;;;;;;17.63;9.77;;;-0.50;99.90;;;;;;5025722;28;20220;-43
2021/01/16 09:48:36;;;;;;;14.77;8.70;;;-0.50;99.90;;;;;;5031471;28;20036;-44
2021/01/16 09:51:03;;;;;;;18.02;9.75;;;-0.40;99.90;;;;;;5031072;28;20063;-45
2021/01/16 09:53:29;;;;;;;13.18;8.38;;;-0.30;99.90;;;;;;5031188;28;20627;-43
2021/01/16 09:55:55;;;;;;;14.90;8.48;;;-0.30;99.90;;;;;;5030415;28;20037;-44
2021/01/16 09:58:31;;;;;;;13.55;8.13;;;-0.30;99.90;;;;;;5031365;28;20367;-45
2021/01/16 10:01:16;;;;;;;14.77;8.50;;;-0.20;99.90;;;;;;5031566;28;20718;-45
2021/01/16 10:03:42;;;;;;;14.40;8.10;;;-0.10;99.90;;;;;;5031211;28;20025;-45
2021/01/16 10:06:08;;;;;;;14.63;7.55;;;-0.10;99.90;;;;;;5030916;28;20418;-44
2021/01/16 10:08:38;;;;;;;14.15;8.02;;;0.00;99.90;;;;;;5031526;28;20029;-44
2021/01/16 10:11:03;;;;;;;20.70;9.90;;;0.10;99.90;;;;;;5029673;28;20428;-45
2021/01/16 10:13:31;;;;;;;14.70;8.43;;;0.20;99.90;;;;;;5030543;28;20037;-44
2021/01/16 10:15:59;;;;;;;14.18;8.38;;;0.30;99.90;;;;;;5030711;28;20079;-44
2021/01/16 10:18:27;;;;;;;13.05;7.80;;;0.40;99.90;;;;;;5029962;28;20033;-44
2021/01/16 10:21:04;;;;;;;13.95;7.47;;;0.60;99.90;;;;;;5028315;28;20437;-44
2021/01/16 10:23:32;;;;;;;16.15;8.80;;;0.70;99.90;;;;;;5030151;28;20032;-43
2021/01/16 10:26:00;;;;;;;12.88;7.97;;;0.70;99.90;;;;;;5028093;28;20024;-44
2021/01/16 10:28:30;;;;;;;11.27;7.28;;;0.70;99.90;;;;;;5030733;28;20564;-44
2021/01/16 10:31:09;;;;;;;14.43;7.93;;;0.90;99.90;;;;;;5030545;28;20083;-43
2021/01/16 10:33:40;;;;;;;11.07;7.40;;;0.90;99.90;;;;;;5029785;28;20031;-44
2021/01/16 10:36:17;;;;;;;15.15;8.23;;;0.80;99.90;;;;;;5028914;28;20176;-44
2021/01/16 10:38:55;;;;;;;12.35;7.03;;;0.80;99.90;;;;;;5029812;28;20025;-44
2021/01/16 10:41:32;;;;;;;11.65;7.45;;;0.70;99.90;;;;;;5029686;28;20030;-45
2021/01/16 10:44:05;;;;;;;14.50;7.55;;;0.70;99.90;;;;;;5029820;28;20087;-44
2021/01/16 10:46:42;;;;;;;13.25;7.95;;;0.50;99.90;;;;;;5029117;28;20022;-45
2021/01/16 10:49:14;;;;;;;16.23;8.50;;;0.40;99.90;;;;;;5029114;28;20423;-44
2021/01/16 10:51:46;;;;;;;13.02;7.30;;;0.50;99.90;;;;;;5028077;28;20024;-44
2021/01/16 10:54:14;;;;;;;13.82;7.63;;;0.60;99.90;;;;;;5028829;28;20437;-46
2021/01/16 10:56:43;;;;;;;13.85;8.05;;;0.60;99.90;;;;;;5027789;28;20471;-45
2021/01/16 10:59:10;;;;;;;15.82;8.98;;;0.70;99.90;;;;;;5028915;28;20017;-44
2021/01/16 11:01:49;;;;;;;11.10;7.22;;;0.70;99.90;;;;;;5028927;28;20542;-45
2021/01/16 11:04:26;;;;;;;13.57;7.82;;;0.70;99.90;;;;;;5028682;28;20057;-43
2021/01/16 11:07:01;;;;;;;15.38;7.40;;;0.70;99.90;;;;;;5029263;28;20017;-45
2021/01/16 11:09:46;;;;;;;10.50;7.22;;;0.80;99.90;;;;;;5028167;28;20526;-46
2021/01/16 11:12:11;;;;;;;12.52;7.35;;;1.00;99.90;;;;;;5025857;28;20064;-44
2021/01/16 11:14:38;;;;;;;12.30;8.18;;;1.10;99.90;;;;;;5027813;28;20069;-44
2021/01/16 11:17:05;;;;;;;12.07;7.63;;;1.20;99.90;;;;;;5028636;28;20036;-45
2021/01/16 11:19:36;;;;;;;13.98;8.57;;;1.40;99.90;;;;;;5028972;28;20033;-45
2021/01/16 11:22:12;;;;;;;15.10;7.82;;;1.40;99.90;;;;;;5028721;28;20478;-43
2021/01/16 11:24:57;;;;;;;12.20;7.82;;;1.60;99.90;;;;;;5028171;28;20467;-46
2021/01/16 11:27:30;;;;;;;14.65;8.27;;;1.80;99.90;;;;;;5027653;28;20040;-45
2021/01/16 11:30:25;;;;;;;16.42;8.25;;;1.90;99.90;;;;;;5028699;28;20096;-45
2021/01/16 11:32:54;;;;;;;12.77;7.57;;;1.80;99.90;;;;;;5029121;28;20022;-45
2021/01/16 11:35:36;;;;;;;13.18;8.02;;;1.70;99.90;;;;;;5027945;28;20067;-45
2021/01/16 11:38:02;;;;;;;14.00;8.60;;;1.70;99.90;;;;;;5028535;28;20121;-45
2021/01/16 11:40:39;;;;;;;13.15;8.43;;;1.90;99.90;;;;;;5028543;28;20100;-45
2021/01/16 11:43:09;;;;;;;10.63;6.97;;;1.80;99.90;;;;;;5027664;28;20100;-45
2021/01/16 11:45:36;;;;;;;11.77;7.25;;;1.60;99.90;;;;;;5027527;28;20044;-46
2021/01/16 11:48:04;;;;;;;11.65;7.38;;;1.60;99.90;;;;;;5027809;28;20022;-46
2021/01/16 11:50:31;;;;;;;13.55;7.25;;;1.50;99.70;;;;;;5028373;28;20414;-45
2021/01/16 11:53:04;;;;;;;11.90;7.90;;;1.50;99.60;;;;;;5028437;28;20506;-44
2021/01/16 11:55:30;;;;;;;11.35;7.55;;;1.40;99.90;;;;;;5027891;28;20372;-45
2021/01/16 11:57:56;;;;;;;14.18;8.25;;;1.40;99.90;;;;;;5027302;28;20062;-45
2021/01/16 12:00:23;;;;;;;14.93;7.80;;;1.30;99.90;;;;;;5027896;28;20068;-45
2021/01/16 12:02:51;;;;;;;13.07;7.78;;;1.40;99.90;;;;;;5027995;28;20042;-45
2021/01/16 12:05:18;;;;;;;10.55;7.60;;;1.50;99.90;;;;;;5027806;28;20055;-46
2021/01/16 12:07:48;;;;;;;11.77;7.00;;;1.20;99.90;;;;;;5027977;28;20037;-45
2021/01/16 12:10:19;;;;;;;13.25;8.35;;;1.40;99.90;;;;;;5028186;28;20054;-45
2021/01/16 12:12:45;;;;;;;12.93;8.13;;;1.40;99.90;;;;;;5027791;28;20037;-45
2021/01/16 12:15:25;;;;;;;13.80;8.77;;;1.60;99.90;;;;;;5027568;28;20196;-45
2021/01/16 12:17:52;;;;;;;14.38;8.50;;;1.80;99.90;;;;;;5026621;28;20044;-47
2021/01/16 12:20:21;;;;;;;14.55;8.45;;;2.10;99.90;;;;;;5028357;28;20056;-45
2021/01/16 12:22:49;;;;;;;14.68;8.20;;;2.30;99.90;;;;;;5028028;28;20029;-45
2021/01/16 12:25:16;;;;;;;13.70;8.10;;;2.30;99.00;;;;;;5027992;28;20025;-46
2021/01/16 12:27:53;;;;;;;16.48;9.15;;;2.20;98.00;;;;;;5027110;28;20029;-45
2021/01/16 12:30:20;;;;;;;14.23;8.13;;;2.10;98.20;;;;;;5026543;28;20033;-45
2021/01/16 12:32:46;;;;;;;16.48;8.45;;;2.40;98.20;;;;;;5018823;28;20452;-45
2021/01/16 12:35:13;;;;;;;16.83;8.55;;;2.50;96.90;;;;;;5023860;28;20029;-45
2021/01/16 12:37:41;;;;;;;15.18;8.80;;;2.20;96.50;;;;;;5025121;28;20037;-45
2021/01/16 12:40:21;;;;;;;16.20;8.43;;;2.00;97.20;;;;;;5025069;28;20083;-45
2021/01/16 12:42:48;;;;;;;15.07;8.70;;;1.80;97.00;;;;;;5026942;28;20425;-44
2021/01/16 12:45:18;;;;;;;14.15;9.00;;;1.70;98.30;;;;;;5030468;28;20530;-45
2021/01/16 12:47:47;;;;;;;14.07;7.72;;;1.50;98.10;;;;;;5029630;28;20034;-45
2021/01/16 12:50:13;;;;;;;15.88;8.27;;;1.40;99.90;;;;;;5031039;28;20068;-45
2021/01/16 12:52:44;;;;;;;18.38;8.48;;;1.40;99.90;;;;;;5030298;28;20055;-45
2021/01/16 12:55:11;;;;;;;14.50;8.13;;;1.40;99.90;;;;;;5030650;28;20055;-45
2021/01/16 12:57:39;;;;;;;14.60;8.35;;;1.10;99.40;;;;;;5029725;28;20114;-47